This is the latest recevied weather packets stored in our database for station/object KE8AFF-13. If no packets are shown the sender has not sent any weather packets the latest 1 day(s).
| Time | Temp. | Humidity | Pressure | Rain* | Wind** | Luminosity | Snow |
|---|---|---|---|---|---|---|---|
| 1777994148 | 19.44° C | 69% | 1007.5 hPa | 0 mm | 3.13 m/s, 233° | 677 W/m² | - |
| 1777993846 | 19.44° C | 68% | 1007.3 hPa | 0 mm | 1.79 m/s, 202° | 672 W/m² | - |
| 1777993542 | 19.44° C | 68% | 1007.1 hPa | 0 mm | 4.02 m/s, 281° | 726 W/m² | - |
| 1777993238 | 19.44° C | 68% | 1007.2 hPa | 0 mm | 3.58 m/s, 219° | 727 W/m² | - |
| 1777992935 | 19.44° C | 68% | 1007 hPa | 0 mm | 1.79 m/s, 212° | 613 W/m² | - |
| 1777992633 | 18.89° C | 68% | 1006.9 hPa | 0 mm | 2.68 m/s, 213° | 613 W/m² | - |
| 1777992331 | 18.89° C | 68% | 1006.7 hPa | 0 mm | 4.02 m/s, 257° | 586 W/m² | - |
| 1777992028 | 19.44° C | 67% | 1006.9 hPa | 0 mm | 4.92 m/s, 231° | 629 W/m² | - |
| 1777991725 | 18.89° C | 69% | 1006.2 hPa | 0 mm | 1.79 m/s, 226° | 628 W/m² | - |
| 1777991422 | 18.33° C | 69% | 1006.1 hPa | 0 mm | 3.58 m/s, 234° | 413 W/m² | - |
| 1777991120 | 18.33° C | 70% | 1006.2 hPa | 0 mm | 3.58 m/s, 233° | 543 W/m² | - |
| 1777990817 | 18.33° C | 71% | 1006 hPa | 0 mm | 3.13 m/s, 234° | 615 W/m² | - |
| 1777990514 | 18.33° C | 71% | 1006 hPa | 0 mm | 4.02 m/s, 232° | 575 W/m² | - |
| 1777990210 | 18.33° C | 71% | 1006.2 hPa | 0 mm | 4.02 m/s, 203° | 567 W/m² | - |
| 1777989908 | 17.78° C | 73% | 1006.2 hPa | 0 mm | 2.68 m/s, 218° | 538 W/m² | - |
| 1777989604 | 17.78° C | 72% | 1006.3 hPa | 0 mm | 3.58 m/s, 237° | 491 W/m² | - |
| 1777989301 | 17.78° C | 75% | 1006.6 hPa | 0 mm | 2.68 m/s, 226° | 528 W/m² | - |
| 1777988997 | 17.22° C | 76% | 1006.8 hPa | 0 mm | 2.68 m/s, 236° | 477 W/m² | - |
| 1777988693 | 17.22° C | 76% | 1006.6 hPa | 0 mm | 6.26 m/s, 222° | 472 W/m² | - |
| 1777988390 | 16.67° C | 78% | 1006.8 hPa | 0 mm | 2.24 m/s, 188° | 480 W/m² | - |
| 1777988088 | 16.67° C | 79% | 1006.9 hPa | 0 mm | 2.24 m/s, 177° | 393 W/m² | - |
| 1777987783 | 16.67° C | 78% | 1006.7 hPa | 0 mm | 5.36 m/s, 227° | 373 W/m² | - |
| 1777987480 | 16.67° C | 79% | 1006.3 hPa | 0 mm | 4.02 m/s, 185° | 362 W/m² | - |
| 1777987178 | 16.11° C | 80% | 1006.6 hPa | 0 mm | 4.47 m/s, 213° | 344 W/m² | - |
| 1777986874 | 16.11° C | 80% | 1006.6 hPa | 0 mm | 4.02 m/s, 213° | 367 W/m² | - |
* Rain latest hour (hover to see other rain measurements)
** Current wind speed in m/s (hover to see current wind gust speed)